Time;durP1;ratioP1;P1;durP2;ratioP2;P2;SDS_P1;SDS_P2;PMS_P1;PMS_P2;Temp;Humidity;BMP_temperature;BMP_pressure;BME280_temperature;BME280_humidity;BME280_pressure;Samples;Min_cycle;Max_cycle;Signal;HPM_P1;HPM_P2
2022/10/06 00:00:41;;;;;;;3.13;2.83;;;19.40;49.40;;;;;;5012385;28;20174;-45
2022/10/06 00:03:07;;;;;;;4.90;2.90;;;19.50;48.70;;;;;;5012210;28;20413;-44
2022/10/06 00:05:33;;;;;;;4.50;2.70;;;19.60;48.40;;;;;;5011707;28;20205;-44
2022/10/06 00:07:59;;;;;;;4.70;2.87;;;19.80;48.20;;;;;;5011804;28;20275;-45
2022/10/06 00:10:25;;;;;;;3.38;2.95;;;19.80;48.10;;;;;;5012235;28;20452;-44
2022/10/06 00:12:51;;;;;;;3.23;2.77;;;19.90;48.00;;;;;;5012246;28;20670;-45
2022/10/06 00:15:21;;;;;;;3.60;3.28;;;19.90;47.80;;;;;;5012141;28;20237;-44
2022/10/06 00:17:46;;;;;;;3.75;2.90;;;20.00;47.50;;;;;;5011550;28;20183;-45
2022/10/06 00:20:13;;;;;;;5.87;3.23;;;20.00;47.50;;;;;;5012098;28;20252;-46
2022/10/06 00:22:44;;;;;;;4.00;3.00;;;20.00;47.50;;;;;;5011907;28;20709;-45
2022/10/06 00:25:12;;;;;;;3.13;2.85;;;20.00;47.30;;;;;;5011909;28;20199;-46
2022/10/06 00:27:40;;;;;;;3.20;2.50;;;20.00;47.40;;;;;;5011657;28;20205;-44
2022/10/06 00:30:09;;;;;;;7.97;3.60;;;20.00;47.30;;;;;;5012033;28;20586;-46
2022/10/06 00:32:35;;;;;;;3.80;2.60;;;20.10;47.40;;;;;;5011972;28;20696;-45
2022/10/06 00:35:02;;;;;;;3.55;3.10;;;20.10;47.30;;;;;;4994097;28;20356;-45
2022/10/06 00:37:32;;;;;;;3.15;2.70;;;20.10;47.20;;;;;;5011546;28;20217;-45
2022/10/06 00:39:58;;;;;;;4.45;2.72;;;20.10;47.10;;;;;;5012436;28;20257;-45
2022/10/06 00:42:26;;;;;;;2.40;2.20;;;20.10;47.20;;;;;;5015685;28;20642;-44
2022/10/06 00:44:52;;;;;;;4.00;2.75;;;20.20;47.80;;;;;;5015515;28;20701;-45
2022/10/06 00:47:21;;;;;;;5.53;3.30;;;20.20;47.20;;;;;;5015134;28;20210;-44
2022/10/06 00:49:48;;;;;;;4.85;2.83;;;20.20;47.00;;;;;;5015440;28;20163;-46
2022/10/06 00:52:18;;;;;;;5.82;3.13;;;20.20;46.80;;;;;;5015369;28;20163;-45
2022/10/06 00:54:44;;;;;;;3.25;2.83;;;20.20;46.80;;;;;;5015562;28;20163;-44
2022/10/06 00:57:11;;;;;;;5.17;2.57;;;20.20;46.80;;;;;;5014796;28;20669;-44
2022/10/06 00:59:37;;;;;;;3.58;3.00;;;20.20;46.70;;;;;;5015321;28;20174;-44
2022/10/06 01:02:12;;;;;;;3.08;2.75;;;20.20;46.70;;;;;;5015163;28;20217;-45
2022/10/06 01:04:42;;;;;;;3.40;2.75;;;20.20;46.70;;;;;;5015146;28;20166;-47
2022/10/06 01:07:08;;;;;;;2.50;2.30;;;20.20;46.80;;;;;;5014686;28;20218;-44
2022/10/06 01:09:35;;;;;;;2.60;2.40;;;20.20;46.80;;;;;;5015216;28;20185;-44
2022/10/06 01:12:04;;;;;;;4.30;3.38;;;20.10;46.80;;;;;;5015073;28;20209;-44
2022/10/06 01:14:31;;;;;;;7.25;3.13;;;20.10;46.90;;;;;;5014926;28;20225;-46
2022/10/06 01:17:12;;;;;;;4.18;2.50;;;20.10;46.80;;;;;;5014620;28;20582;-45
2022/10/06 01:19:53;;;;;;;3.55;2.72;;;20.10;46.60;;;;;;5015071;28;20175;-45
2022/10/06 01:22:43;;;;;;;3.63;2.90;;;20.10;46.60;;;;;;5015175;28;20177;-45
2022/10/06 01:25:12;;;;;;;5.18;3.30;;;20.00;46.50;;;;;;5014919;28;20202;-44
2022/10/06 01:27:41;;;;;;;4.68;3.42;;;20.00;46.70;;;;;;5014325;28;20268;-46
2022/10/06 01:30:10;;;;;;;3.33;3.03;;;19.90;46.70;;;;;;5014823;28;20171;-44
2022/10/06 01:32:37;;;;;;;5.25;2.78;;;19.90;46.80;;;;;;5014717;28;20523;-44
2022/10/06 01:35:05;;;;;;;3.58;3.25;;;19.80;46.60;;;;;;5014533;28;20203;-44
2022/10/06 01:37:31;;;;;;;3.58;2.80;;;19.80;46.80;;;;;;5013807;28;20178;-44
2022/10/06 01:39:56;;;;;;;3.37;2.63;;;19.70;46.90;;;;;;5014521;28;20179;-45
2022/10/06 01:42:22;;;;;;;3.37;2.37;;;19.70;46.80;;;;;;5014756;28;20286;-45
2022/10/06 01:44:48;;;;;;;6.60;3.10;;;19.70;46.90;;;;;;5014298;28;20179;-45
2022/10/06 01:47:14;;;;;;;3.63;2.80;;;19.60;46.80;;;;;;5013815;28;20457;-44
2022/10/06 01:49:39;;;;;;;3.00;2.60;;;19.60;46.80;;;;;;5014361;28;20202;-44
2022/10/06 01:52:06;;;;;;;3.50;2.83;;;19.50;46.90;;;;;;5013306;28;20261;-45
2022/10/06 01:54:31;;;;;;;2.83;2.53;;;19.40;46.90;;;;;;5014484;28;20523;-45
2022/10/06 01:56:57;;;;;;;3.50;3.00;;;19.40;47.00;;;;;;5013531;28;20183;-44
2022/10/06 01:59:23;;;;;;;6.40;3.33;;;19.40;47.10;;;;;;5014310;28;20174;-45
2022/10/06 02:01:50;;;;;;;4.05;2.53;;;19.40;47.00;;;;;;5014179;28;20413;-45
2022/10/06 02:04:16;;;;;;;3.80;3.10;;;19.30;47.00;;;;;;5014280;28;20265;-44
2022/10/06 02:06:42;;;;;;;3.50;2.70;;;19.20;47.10;;;;;;5013209;28;20293;-45
2022/10/06 02:09:07;;;;;;;5.00;3.10;;;19.20;47.10;;;;;;5013971;28;20398;-44
2022/10/06 02:11:34;;;;;;;3.90;2.93;;;19.10;47.20;;;;;;5014125;28;20715;-45
2022/10/06 02:14:00;;;;;;;3.05;2.75;;;19.00;47.20;;;;;;5013799;28;20902;-44
2022/10/06 02:16:27;;;;;;;3.95;2.63;;;19.00;47.10;;;;;;5013240;28;20278;-45
2022/10/06 02:18:53;;;;;;;4.90;3.10;;;18.90;47.20;;;;;;5013779;28;20189;-46
2022/10/06 02:21:21;;;;;;;4.43;3.30;;;18.90;47.10;;;;;;5013678;28;20186;-44
2022/10/06 02:23:47;;;;;;;4.28;2.85;;;18.80;47.20;;;;;;5013775;28;20185;-44
2022/10/06 02:26:16;;;;;;;4.28;3.20;;;18.70;47.20;;;;;;5013172;28;20234;-46
2022/10/06 02:28:43;;;;;;;4.13;3.30;;;18.60;47.30;;;;;;5013538;28;20240;-44
2022/10/06 02:31:10;;;;;;;5.07;2.72;;;18.50;47.70;;;;;;5013817;28;20551;-45
2022/10/06 02:33:37;;;;;;;4.38;3.15;;;18.40;47.50;;;;;;5013638;28;20181;-45
2022/10/06 02:36:03;;;;;;;3.47;3.10;;;18.30;47.80;;;;;;5012682;28;20768;-43
2022/10/06 02:38:31;;;;;;;4.00;3.50;;;18.30;47.90;;;;;;5013404;28;20269;-46
2022/10/06 02:40:58;;;;;;;3.88;3.17;;;18.10;48.00;;;;;;4995799;28;20551;-45
2022/10/06 02:43:24;;;;;;;3.45;3.15;;;18.10;48.10;;;;;;5013552;28;20184;-46
2022/10/06 02:45:57;;;;;;;4.60;2.80;;;18.10;48.20;;;;;;5012809;28;20560;-46
2022/10/06 02:48:24;;;;;;;4.07;3.17;;;18.00;48.10;;;;;;5013194;28;20245;-44
2022/10/06 02:50:57;;;;;;;5.68;2.72;;;17.90;48.50;;;;;;5013144;28;20182;-45
2022/10/06 02:53:24;;;;;;;4.35;3.50;;;17.90;48.60;;;;;;5013203;28;20167;-44
2022/10/06 02:55:56;;;;;;;3.95;3.00;;;17.90;48.70;;;;;;5012550;28;20207;-44
2022/10/06 02:58:22;;;;;;;3.55;3.25;;;17.80;48.80;;;;;;5013115;28;20662;-46
2022/10/06 03:00:47;;;;;;;7.10;3.20;;;17.80;49.10;;;;;;5012983;28;20198;-43
2022/10/06 03:03:13;;;;;;;6.87;3.60;;;17.80;49.20;;;;;;5013026;28;20663;-45
2022/10/06 03:05:39;;;;;;;3.97;2.97;;;17.70;49.50;;;;;;5012472;28;20217;-45
2022/10/06 03:08:04;;;;;;;5.27;3.50;;;17.80;49.60;;;;;;5012848;28;20171;-45
2022/10/06 03:10:30;;;;;;;3.20;2.50;;;17.80;49.50;;;;;;5013157;28;20535;-46
2022/10/06 03:12:56;;;;;;;3.70;2.60;;;17.80;49.30;;;;;;5012901;28;20634;-45
2022/10/06 03:15:22;;;;;;;4.13;3.30;;;17.80;49.20;;;;;;5012600;28;20805;-44
2022/10/06 03:17:49;;;;;;;3.65;3.15;;;17.80;49.00;;;;;;5012393;28;20178;-45
2022/10/06 03:20:14;;;;;;;5.40;3.58;;;17.80;48.90;;;;;;5013037;28;20316;-46
2022/10/06 03:22:40;;;;;;;6.57;3.23;;;17.80;48.90;;;;;;5012784;28;20254;-46
2022/10/06 03:25:06;;;;;;;5.17;4.00;;;17.70;49.10;;;;;;4995018;28;20242;-45
2022/10/06 03:27:32;;;;;;;3.83;3.53;;;17.70;49.20;;;;;;5011972;28;20733;-46
2022/10/06 03:29:58;;;;;;;5.40;3.93;;;17.70;49.40;;;;;;5012592;28;20278;-44
2022/10/06 03:32:24;;;;;;;19.60;4.10;;;17.70;49.30;;;;;;5012773;28;20301;-44
2022/10/06 03:34:51;;;;;;;4.90;3.90;;;17.60;49.20;;;;;;5012551;28;20205;-45
2022/10/06 03:37:17;;;;;;;4.78;3.33;;;17.60;49.20;;;;;;5012098;28;20410;-45
2022/10/06 03:39:43;;;;;;;3.65;3.35;;;17.60;49.20;;;;;;5012539;28;20554;-44
2022/10/06 03:42:09;;;;;;;4.13;3.27;;;17.60;49.10;;;;;;5012676;28;20170;-45
2022/10/06 03:44:35;;;;;;;3.60;3.10;;;17.60;49.00;;;;;;5012305;28;20472;-44
2022/10/06 03:47:01;;;;;;;3.55;3.20;;;17.60;49.10;;;;;;5011878;28;20209;-46
2022/10/06 03:49:27;;;;;;;4.17;3.23;;;17.60;49.20;;;;;;5012612;28;20174;-45
2022/10/06 03:51:53;;;;;;;4.53;3.43;;;17.60;49.30;;;;;;5012598;28;20203;-44
2022/10/06 03:54:18;;;;;;;5.73;4.03;;;17.60;49.20;;;;;;5012290;28;20178;-44
2022/10/06 03:56:44;;;;;;;4.70;3.23;;;17.60;49.30;;;;;;5011636;28;20196;-43
2022/10/06 03:59:12;;;;;;;5.87;3.90;;;17.60;49.20;;;;;;5012410;28;20488;-45
2022/10/06 04:01:41;;;;;;;6.78;3.83;;;17.60;49.20;;;;;;5012365;28;20406;-44
2022/10/06 04:04:08;;;;;;;5.10;3.67;;;17.60;49.40;;;;;;5012330;28;20187;-44
2022/10/06 04:06:37;;;;;;;4.40;3.63;;;17.60;49.30;;;;;;5011674;28;20234;-47
2022/10/06 04:09:05;;;;;;;3.00;2.70;;;17.60;49.40;;;;;;5012105;28;20221;-44
2022/10/06 04:11:34;;;;;;;4.32;3.25;;;17.60;49.60;;;;;;5012063;28;20170;-44
2022/10/06 04:14:02;;;;;;;4.38;3.97;;;17.60;49.50;;;;;;5012125;28;20590;-43
2022/10/06 04:16:30;;;;;;;5.45;3.55;;;17.60;49.50;;;;;;5014206;28;20198;-45
2022/10/06 04:18:59;;;;;;;5.65;4.15;;;17.60;49.40;;;;;;5016066;28;20313;-45
2022/10/06 04:21:26;;;;;;;3.90;3.22;;;17.60;49.60;;;;;;5015979;28;20178;-45
2022/10/06 04:23:53;;;;;;;7.72;4.28;;;17.50;49.70;;;;;;5015895;28;20194;-45
2022/10/06 04:26:20;;;;;;;4.60;4.07;;;17.60;49.60;;;;;;5015305;28;20205;-44
2022/10/06 04:28:46;;;;;;;8.82;3.83;;;17.60;49.70;;;;;;5015913;28;20217;-43
2022/10/06 04:31:15;;;;;;;5.47;3.22;;;17.50;49.90;;;;;;5015698;28;20179;-45
2022/10/06 04:33:43;;;;;;;3.60;3.28;;;17.50;49.90;;;;;;5015841;28;20281;-44
2022/10/06 04:36:16;;;;;;;4.30;3.90;;;17.40;50.00;;;;;;5014867;28;20218;-45
2022/10/06 04:38:42;;;;;;;6.22;3.50;;;17.40;50.20;;;;;;5015890;28;20265;-44
2022/10/06 04:41:15;;;;;;;6.35;3.63;;;17.50;50.20;;;;;;5015566;28;20170;-45
2022/10/06 04:43:41;;;;;;;5.15;4.65;;;17.50;50.40;;;;;;5015603;28;20205;-45
2022/10/06 04:46:08;;;;;;;5.87;3.80;;;17.50;50.50;;;;;;5014671;28;20210;-45
2022/10/06 04:48:34;;;;;;;7.00;3.40;;;17.50;50.40;;;;;;5015460;28;20448;-46
2022/10/06 04:51:05;;;;;;;4.73;3.87;;;17.50;50.40;;;;;;5015677;28;20174;-44
2022/10/06 04:53:32;;;;;;;7.43;4.50;;;17.50;50.50;;;;;;5015266;28;20665;-43
2022/10/06 04:55:59;;;;;;;4.25;3.85;;;17.50;50.60;;;;;;5014746;28;20206;-46
2022/10/06 04:58:26;;;;;;;7.57;4.45;;;17.60;50.60;;;;;;5015273;28;20643;-44
2022/10/06 05:00:51;;;;;;;6.55;3.35;;;17.60;50.80;;;;;;5015183;28;20677;-45
2022/10/06 05:03:17;;;;;;;5.40;4.03;;;17.60;51.00;;;;;;5015494;28;20175;-44
2022/10/06 05:05:43;;;;;;;5.80;3.72;;;17.70;51.30;;;;;;5014674;28;20210;-45
2022/10/06 05:08:09;;;;;;;5.90;3.63;;;17.70;51.00;;;;;;5015053;28;20178;-44
2022/10/06 05:10:35;;;;;;;5.80;3.37;;;17.70;51.30;;;;;;5015340;28;20178;-44
2022/10/06 05:13:02;;;;;;;4.40;3.30;;;17.70;52.70;;;;;;5015139;28;20225;-44
2022/10/06 05:15:28;;;;;;;4.30;3.90;;;17.70;52.20;;;;;;5014699;28;20273;-43
2022/10/06 05:17:54;;;;;;;5.20;4.70;;;17.80;52.50;;;;;;5014513;28;20202;-43
2022/10/06 05:20:21;;;;;;;4.90;3.30;;;17.80;52.50;;;;;;5014791;28;20441;-43
2022/10/06 05:22:48;;;;;;;4.13;2.78;;;18.00;52.80;;;;;;5015112;28;20178;-45
2022/10/06 05:25:13;;;;;;;3.85;3.00;;;18.10;53.70;;;;;;5014919;28;20264;-45
2022/10/06 05:27:39;;;;;;;4.07;2.53;;;18.30;53.40;;;;;;5012979;28;20206;-45
2022/10/06 05:30:05;;;;;;;6.50;4.00;;;18.50;53.50;;;;;;5014756;28;20460;-44
2022/10/06 05:32:31;;;;;;;5.05;3.10;;;18.60;53.10;;;;;;5014695;28;20669;-43
2022/10/06 05:34:57;;;;;;;5.60;3.60;;;18.80;52.90;;;;;;5014353;28;20206;-44
2022/10/06 05:37:24;;;;;;;3.20;2.40;;;18.90;52.80;;;;;;5014268;28;20170;-44
2022/10/06 05:39:49;;;;;;;3.45;3.15;;;19.00;52.60;;;;;;5014710;28;20186;-46
2022/10/06 05:42:15;;;;;;;3.50;2.53;;;19.10;52.30;;;;;;5014587;28;20249;-44
2022/10/06 05:44:41;;;;;;;5.17;3.03;;;19.30;52.10;;;;;;5014378;28;20496;-44
2022/10/06 05:47:07;;;;;;;3.00;2.27;;;19.40;51.80;;;;;;5013681;28;20201;-45
2022/10/06 05:49:32;;;;;;;4.97;2.43;;;19.50;51.70;;;;;;5014230;28;20213;-45
2022/10/06 05:51:58;;;;;;;4.73;2.80;;;19.50;51.30;;;;;;5014231;28;20523;-44
2022/10/06 05:54:24;;;;;;;4.57;3.10;;;19.70;51.30;;;;;;5014405;28;20178;-45
2022/10/06 05:56:49;;;;;;;2.50;2.30;;;19.70;50.90;;;;;;5013622;28;20309;-44
2022/10/06 05:59:15;;;;;;;7.33;2.90;;;19.80;51.50;;;;;;5014115;28;20175;-45
2022/10/06 06:01:42;;;;;;;2.63;2.00;;;19.90;50.60;;;;;;5014044;28;20182;-44
2022/10/06 06:04:10;;;;;;;3.40;2.90;;;19.90;50.50;;;;;;5013980;28;20185;-44
2022/10/06 06:06:41;;;;;;;3.70;2.70;;;20.00;50.30;;;;;;5013288;28;20606;-46
2022/10/06 06:09:10;;;;;;;5.65;3.03;;;20.10;50.20;;;;;;5013929;28;20655;-44
2022/10/06 06:11:38;;;;;;;3.45;2.90;;;20.10;50.00;;;;;;5014128;28;20178;-46
2022/10/06 06:14:07;;;;;;;5.70;2.80;;;20.10;49.90;;;;;;5013803;28;20651;-45
2022/10/06 06:16:35;;;;;;;2.83;2.47;;;20.20;50.00;;;;;;5013054;28;20238;-44
2022/10/06 06:19:02;;;;;;;6.97;3.05;;;20.20;49.80;;;;;;5013681;28;20602;-46
2022/10/06 06:21:28;;;;;;;4.80;2.88;;;20.20;49.70;;;;;;5014029;28;20265;-45
2022/10/06 06:23:54;;;;;;;8.30;2.55;;;20.30;49.70;;;;;;5013699;28;20597;-45
2022/10/06 06:26:22;;;;;;;1.90;1.30;;;20.30;49.00;;;;;;5012901;28;20210;-45
2022/10/06 06:28:49;;;;;;;1.50;0.90;;;20.20;47.70;;;;;;5013472;28;20171;-44
2022/10/06 06:31:25;;;;;;;2.17;1.08;;;20.00;47.00;;;;;;5013422;28;20182;-45
2022/10/06 06:33:53;;;;;;;1.65;1.10;;;20.00;46.80;;;;;;5013497;28;20190;-47
2022/10/06 06:36:24;;;;;;;2.58;0.90;;;19.70;46.10;;;;;;5012758;28;20214;-45
2022/10/06 06:38:57;;;;;;;1.23;0.90;;;19.60;46.10;;;;;;5013129;28;20175;-45
2022/10/06 06:41:25;;;;;;;2.35;0.90;;;19.40;46.20;;;;;;5013434;28;20273;-47
2022/10/06 06:43:54;;;;;;;1.60;0.68;;;19.20;46.60;;;;;;5013260;28;20639;-46
2022/10/06 06:46:25;;;;;;;1.42;0.50;;;19.10;46.80;;;;;;5012835;28;20240;-46
2022/10/06 06:48:52;;;;;;;5.00;1.13;;;19.00;47.30;;;;;;5013431;28;20178;-47
2022/10/06 06:51:22;;;;;;;2.75;1.42;;;18.90;47.70;;;;;;5013290;28;20182;-45
2022/10/06 06:53:52;;;;;;;2.05;0.90;;;18.70;47.90;;;;;;5013509;28;20159;-45
2022/10/06 06:56:20;;;;;;;3.83;0.60;;;18.60;48.50;;;;;;5012680;28;20314;-46
2022/10/06 06:58:46;;;;;;;1.83;0.95;;;18.50;48.70;;;;;;5013027;28;20178;-44
2022/10/06 07:01:14;;;;;;;2.45;1.05;;;18.50;49.10;;;;;;5012975;28;20186;-46
2022/10/06 07:03:42;;;;;;;2.38;1.20;;;18.50;49.30;;;;;;5013130;28;20542;-46
2022/10/06 07:06:14;;;;;;;1.45;0.68;;;18.40;49.30;;;;;;5012315;28;20209;-46
2022/10/06 07:08:43;;;;;;;1.42;0.80;;;18.40;49.50;;;;;;5012859;28;20217;-45
2022/10/06 07:11:45;;;;;;;3.25;1.42;;;18.40;49.90;;;;;;5013147;28;20183;-45
2022/10/06 07:14:13;;;;;;;3.08;1.25;;;18.30;49.90;;;;;;5007896;28;20182;-46
2022/10/06 07:25:20;;;;;;;2.00;1.00;;;18.20;50.50;;;;;;5012969;28;20197;-46
2022/10/06 07:27:49;;;;;;;2.80;1.00;;;18.10;50.60;;;;;;5011918;28;20214;-44
2022/10/06 07:30:21;;;;;;;2.30;1.60;;;18.10;50.60;;;;;;5012755;28;20174;-44
2022/10/06 07:32:49;;;;;;;1.52;0.95;;;18.10;50.80;;;;;;5012457;28;20261;-46
2022/10/06 07:35:16;;;;;;;2.92;1.40;;;18.10;51.00;;;;;;5012434;28;20213;-45
2022/10/06 07:37:42;;;;;;;1.30;1.00;;;18.10;50.80;;;;;;5012024;28;20171;-44
2022/10/06 07:40:09;;;;;;;2.47;1.30;;;18.60;51.20;;;;;;5012615;28;20305;-45
2022/10/06 07:42:48;;;;;;;2.97;1.05;;;18.00;51.00;;;;;;5012275;28;20183;-46
2022/10/06 07:45:37;;;;;;;4.20;1.10;;;18.00;50.90;;;;;;5012443;28;20205;-45
2022/10/06 07:48:05;;;;;;;2.30;0.80;;;18.10;51.20;;;;;;5012357;28;20304;-44
2022/10/06 07:50:31;;;;;;;2.03;1.00;;;18.10;51.00;;;;;;5011557;28;20166;-45
2022/10/06 07:53:00;;;;;;;1.60;1.10;;;18.10;51.10;;;;;;5012439;28;20183;-46
2022/10/06 07:55:25;;;;;;;7.22;1.50;;;18.20;50.80;;;;;;5011969;28;20194;-45
2022/10/06 07:57:51;;;;;;;4.20;0.80;;;18.20;50.70;;;;;;5011877;28;20186;-45
2022/10/06 08:00:21;;;;;;;2.40;1.00;;;18.30;50.80;;;;;;5012315;28;20635;-45
2022/10/06 08:02:47;;;;;;;3.63;1.50;;;18.30;50.80;;;;;;5012398;28;20414;-44
2022/10/06 08:05:13;;;;;;;3.22;1.23;;;18.30;51.00;;;;;;5012297;28;20225;-46
2022/10/06 08:07:39;;;;;;;3.40;1.23;;;18.30;51.00;;;;;;5011377;28;20206;-45
2022/10/06 08:10:05;;;;;;;4.93;1.80;;;18.30;50.80;;;;;;5012264;28;20660;-47
2022/10/06 08:12:36;;;;;;;3.47;1.27;;;18.30;50.80;;;;;;5012075;28;20586;-45
2022/10/06 08:15:05;;;;;;;3.60;1.45;;;18.40;50.90;;;;;;5012255;28;20194;-44
2022/10/06 08:17:32;;;;;;;2.90;1.30;;;18.40;50.80;;;;;;5011374;28;20226;-45
2022/10/06 08:19:58;;;;;;;1.80;1.00;;;18.50;50.80;;;;;;5011999;28;20179;-46
2022/10/06 08:22:28;;;;;;;3.05;1.13;;;18.50;50.80;;;;;;5012191;28;20241;-45
2022/10/06 08:24:56;;;;;;;3.05;1.52;;;18.60;50.60;;;;;;5011840;28;20237;-44
2022/10/06 08:27:25;;;;;;;2.72;1.30;;;18.60;50.40;;;;;;5011285;28;20194;-45
2022/10/06 08:29:51;;;;;;;5.47;1.85;;;18.60;49.90;;;;;;5011834;28;20723;-45
2022/10/06 08:32:19;;;;;;;2.27;1.60;;;18.60;50.00;;;;;;5012414;28;20285;-45
2022/10/06 08:34:46;;;;;;;2.63;1.58;;;18.60;50.00;;;;;;5011951;28;20253;-46
2022/10/06 08:37:11;;;;;;;2.45;1.40;;;18.60;50.70;;;;;;5011293;28;20807;-45
2022/10/06 08:39:37;;;;;;;5.40;1.50;;;18.60;50.10;;;;;;5011800;28;20194;-46
2022/10/06 08:42:03;;;;;;;2.63;1.40;;;18.60;50.10;;;;;;5011923;28;20187;-46
2022/10/06 08:44:37;;;;;;;2.60;1.30;;;18.70;50.20;;;;;;5012188;28;20177;-45
2022/10/06 08:47:18;;;;;;;4.30;2.13;;;18.70;50.30;;;;;;5011524;28;20221;-45
2022/10/06 08:49:48;;;;;;;6.07;1.98;;;18.70;50.30;;;;;;5011778;28;20162;-46
2022/10/06 08:52:26;;;;;;;2.30;1.33;;;18.80;50.10;;;;;;5011757;28;20217;-46
2022/10/06 08:55:11;;;;;;;3.22;1.30;;;18.80;50.20;;;;;;5011520;28;20208;-46
2022/10/06 08:58:04;;;;;;;3.33;1.25;;;18.80;49.90;;;;;;5011351;28;20237;-45
2022/10/06 09:00:35;;;;;;;5.00;1.17;;;18.90;50.20;;;;;;5011696;28;20661;-47
2022/10/06 09:03:02;;;;;;;1.95;1.15;;;18.90;50.30;;;;;;5015141;28;20186;-45
2022/10/06 09:05:30;;;;;;;2.67;1.52;;;19.00;50.20;;;;;;5014980;28;20594;-45
2022/10/06 09:08:28;;;;;;;2.08;1.30;;;19.10;50.30;;;;;;5015103;28;20214;-46
2022/10/06 09:11:14;;;;;;;3.35;1.48;;;19.20;50.20;;;;;;5015218;28;20185;-45
2022/10/06 09:13:51;;;;;;;2.20;1.45;;;19.20;50.30;;;;;;5014973;28;20170;-45
2022/10/06 09:16:27;;;;;;;3.70;1.85;;;19.20;50.50;;;;;;5014541;28;20209;-44
2022/10/06 09:19:16;;;;;;;3.38;1.30;;;19.30;50.60;;;;;;5015146;28;20546;-45
2022/10/06 09:21:52;;;;;;;3.45;1.40;;;19.30;50.00;;;;;;5014984;28;20183;-45
2022/10/06 09:24:29;;;;;;;2.15;1.00;;;19.30;49.70;;;;;;5014640;28;20186;-44
2022/10/06 09:26:57;;;;;;;1.48;1.00;;;19.40;49.80;;;;;;5014419;28;20248;-45
2022/10/06 09:29:23;;;;;;;2.45;1.20;;;19.40;49.80;;;;;;5015054;28;20535;-44
2022/10/06 09:31:49;;;;;;;2.65;1.38;;;19.50;50.10;;;;;;5014725;28;20639;-46
2022/10/06 09:34:30;;;;;;;2.90;1.30;;;19.60;50.00;;;;;;5014593;28;20718;-46
2022/10/06 09:37:07;;;;;;;4.18;1.50;;;19.70;49.60;;;;;;5014342;28;20218;-45
2022/10/06 09:39:36;;;;;;;3.45;1.25;;;19.90;49.70;;;;;;5014895;28;20173;-45
2022/10/06 09:42:15;;;;;;;3.05;2.17;;;20.00;48.30;;;;;;5014498;28;20658;-45
2022/10/06 09:44:55;;;;;;;3.15;0.90;;;20.10;47.20;;;;;;5014438;28;20726;-45
2022/10/06 09:47:45;;;;;;;4.55;1.70;;;20.10;47.10;;;;;;5014463;28;20331;-45
2022/10/06 09:50:14;;;;;;;2.72;1.25;;;20.20;46.50;;;;;;5014409;28;20615;-45
2022/10/06 09:53:20;;;;;;;3.35;1.55;;;20.30;46.10;;;;;;4996699;28;20181;-44
2022/10/06 09:55:53;;;;;;;7.25;1.90;;;20.30;45.70;;;;;;5014152;28;20204;-45
2022/10/06 09:58:31;;;;;;;4.00;1.60;;;20.40;46.50;;;;;;5014513;28;20163;-45
2022/10/06 10:01:00;;;;;;;5.55;1.48;;;20.50;45.60;;;;;;5014494;28;20166;-45
2022/10/06 10:03:44;;;;;;;4.07;2.20;;;20.70;45.60;;;;;;5014216;28;20646;-45
2022/10/06 10:06:21;;;;;;;2.55;1.65;;;20.90;45.90;;;;;;5014082;28;20234;-45
2022/10/06 10:08:47;;;;;;;2.35;1.60;;;21.00;43.60;;;;;;5014289;28;20245;-45
2022/10/06 10:14:16;;;;;;;3.13;1.63;;;21.40;43.10;;;;;;5013483;28;20515;-45
2022/10/06 10:16:43;;;;;;;4.15;1.70;;;21.60;42.20;;;;;;5013464;28;20199;-45
2022/10/06 10:19:26;;;;;;;5.18;2.00;;;21.60;42.60;;;;;;5014066;28;20181;-45
2022/10/06 10:21:55;;;;;;;2.13;1.42;;;21.60;40.30;;;;;;5014102;28;20166;-45
2022/10/06 10:24:59;;;;;;;3.87;1.37;;;21.50;40.40;;;;;;5013936;28;20179;-45
2022/10/06 10:27:43;;;;;;;6.53;1.80;;;21.50;38.60;;;;;;4990231;28;20461;-45
2022/10/06 10:30:13;;;;;;;6.30;1.70;;;21.40;38.60;;;;;;5013890;28;20166;-45
2022/10/06 10:32:39;;;;;;;4.37;1.60;;;21.50;39.80;;;;;;5013866;28;20460;-46
2022/10/06 10:35:22;;;;;;;10.77;2.53;;;21.50;38.50;;;;;;5013251;28;20449;-45
2022/10/06 10:38:01;;;;;;;4.90;1.70;;;21.60;40.00;;;;;;5013539;28;20186;-45
2022/10/06 10:40:32;;;;;;;4.00;2.10;;;21.60;39.90;;;;;;5013765;28;20389;-45
2022/10/06 10:43:11;;;;;;;3.17;1.60;;;21.50;37.50;;;;;;5013450;28;20901;-45
2022/10/06 10:45:50;;;;;;;5.23;1.53;;;21.30;38.70;;;;;;5012745;28;20483;-45
2022/10/06 10:48:26;;;;;;;2.85;1.45;;;21.20;38.60;;;;;;5013451;28;20937;-45
2022/10/06 10:51:04;;;;;;;2.90;1.35;;;21.00;37.60;;;;;;5013262;28;20515;-44
2022/10/06 10:53:52;;;;;;;4.93;2.10;;;21.00;37.90;;;;;;5013328;28;20166;-45
2022/10/06 10:56:22;;;;;;;4.17;1.50;;;21.10;38.20;;;;;;5012611;28;20437;-45
2022/10/06 10:58:54;;;;;;;7.03;1.73;;;21.30;38.80;;;;;;5013277;28;20930;-45
2022/10/06 11:01:39;;;;;;;5.63;1.70;;;21.60;37.80;;;;;;5011867;28;20406;-45
2022/10/06 11:04:10;;;;;;;4.73;1.53;;;21.70;37.50;;;;;;5013066;28;20409;-45
2022/10/06 11:07:00;;;;;;;3.03;1.30;;;22.10;38.20;;;;;;5012364;28;20464;-45
2022/10/06 11:09:50;;;;;;;5.30;1.73;;;22.50;37.40;;;;;;5013333;28;20390;-45
2022/10/06 11:12:38;;;;;;;3.73;1.53;;;22.90;37.60;;;;;;5013026;28;20401;-45
2022/10/06 11:15:37;;;;;;;5.97;2.47;;;23.20;35.60;;;;;;5013023;28;20492;-45
2022/10/06 11:18:32;;;;;;;4.50;1.93;;;23.30;35.70;;;;;;5012818;28;20405;-45
2022/10/06 11:21:23;;;;;;;3.03;1.80;;;23.40;36.10;;;;;;5012663;28;20398;-45
2022/10/06 11:24:01;;;;;;;4.63;1.40;;;23.50;35.20;;;;;;5012187;28;20929;-45
2022/10/06 11:26:47;;;;;;;3.33;1.23;;;23.70;35.80;;;;;;5012168;28;20461;-45
2022/10/06 11:29:34;;;;;;;3.43;1.47;;;23.90;35.90;;;;;;5012953;28;20551;-45
2022/10/06 11:32:21;;;;;;;7.30;2.00;;;23.90;33.70;;;;;;5012519;28;20771;-46
2022/10/06 11:34:50;;;;;;;2.33;1.50;;;23.90;33.60;;;;;;5012481;28;20493;-46
2022/10/06 11:37:30;;;;;;;4.70;1.37;;;23.80;33.70;;;;;;5011838;28;20403;-45
2022/10/06 11:40:22;;;;;;;2.40;1.57;;;23.80;33.40;;;;;;5012802;28;20723;-45
2022/10/06 11:43:03;;;;;;;2.63;1.40;;;23.90;35.10;;;;;;5001693;28;20918;-45
2022/10/06 11:45:50;;;;;;;3.13;2.23;;;24.10;35.00;;;;;;5012273;28;20773;-46
2022/10/06 11:48:34;;;;;;;5.07;1.73;;;24.20;34.40;;;;;;5012248;28;20458;-44
2022/10/06 11:51:25;;;;;;;3.37;1.60;;;24.40;35.70;;;;;;5012353;28;20409;-46
2022/10/06 11:53:58;;;;;;;4.70;1.83;;;24.60;34.70;;;;;;5012769;28;20404;-45
2022/10/06 11:56:44;;;;;;;3.40;1.60;;;24.70;34.80;;;;;;5011594;28;20425;-46
2022/10/06 11:59:12;;;;;;;3.17;1.10;;;24.80;33.70;;;;;;5011939;28;20937;-45
2022/10/06 12:01:43;;;;;;;3.63;1.40;;;24.90;34.20;;;;;;5012156;28;20782;-46
2022/10/06 12:04:09;;;;;;;5.37;1.43;;;24.90;34.30;;;;;;5012101;28;20402;-46
2022/10/06 12:06:43;;;;;;;3.10;1.50;;;25.00;34.90;;;;;;5011340;28;20451;-46
2022/10/06 12:09:24;;;;;;;3.70;1.57;;;25.20;34.70;;;;;;5012339;28;20174;-46
2022/10/06 12:11:55;;;;;;;4.77;1.60;;;25.20;34.20;;;;;;5012208;28;20436;-46
2022/10/06 12:14:43;;;;;;;2.57;1.37;;;25.20;33.70;;;;;;5012452;28;20829;-45
2022/10/06 12:17:41;;;;;;;10.47;2.30;;;25.20;32.60;;;;;;4993837;28;20413;-46
2022/10/06 12:20:33;;;;;;;5.20;1.77;;;24.90;30.50;;;;;;5012014;28;20415;-46
2022/10/06 12:23:07;;;;;;;1.67;1.23;;;24.80;29.40;;;;;;5012395;28;20815;-45
2022/10/06 12:25:57;;;;;;;2.57;1.47;;;24.60;29.80;;;;;;5011418;28;20432;-45
2022/10/06 12:28:29;;;;;;;5.40;1.50;;;24.30;29.20;;;;;;5012092;28;20430;-46
2022/10/06 12:31:13;;;;;;;2.50;1.40;;;24.10;30.60;;;;;;5011994;28;20947;-46
2022/10/06 12:33:41;;;;;;;7.63;2.73;;;24.10;30.80;;;;;;5011983;28;20394;-46
2022/10/06 12:36:24;;;;;;;3.37;1.30;;;24.20;30.90;;;;;;5011873;28;20524;-46
2022/10/06 12:39:19;;;;;;;3.70;1.83;;;24.30;30.30;;;;;;5015878;28;20437;-46
2022/10/06 12:42:01;;;;;;;4.13;1.77;;;24.40;30.30;;;;;;5015796;28;20770;-46
2022/10/06 12:44:48;;;;;;;4.43;1.60;;;24.60;32.40;;;;;;5015981;28;20402;-46
2022/10/06 12:47:40;;;;;;;2.47;1.20;;;24.80;31.80;;;;;;5015211;28;20538;-46
2022/10/06 12:50:11;;;;;;;9.23;2.00;;;24.80;32.30;;;;;;5015475;28;20917;-46
2022/10/06 12:52:57;;;;;;;8.37;1.30;;;24.90;32.20;;;;;;5015373;28;20416;-46
2022/10/06 12:55:41;;;;;;;6.50;1.30;;;25.00;32.80;;;;;;5015601;28;20496;-46
2022/10/06 12:58:17;;;;;;;4.57;2.07;;;25.20;31.80;;;;;;5015452;28;20467;-46
2022/10/06 13:00:44;;;;;;;4.70;1.50;;;25.30;31.30;;;;;;5015265;28;20807;-46
2022/10/06 13:03:23;;;;;;;4.50;1.30;;;25.40;31.10;;;;;;5015547;28;20437;-45
2022/10/06 13:05:56;;;;;;;4.00;1.60;;;25.50;28.90;;;;;;5014645;28;20437;-46
2022/10/06 13:08:27;;;;;;;2.40;1.47;;;25.50;28.60;;;;;;5014913;28;20736;-46
2022/10/06 13:11:26;;;;;;;2.73;1.23;;;25.50;28.30;;;;;;5015089;28;20407;-46
2022/10/06 13:13:54;;;;;;;3.60;1.20;;;25.50;29.40;;;;;;5015433;28;20386;-46
2022/10/06 13:16:30;;;;;;;7.53;2.77;;;25.60;30.90;;;;;;5014370;28;20782;-45
2022/10/06 13:18:59;;;;;;;2.83;1.50;;;25.60;27.80;;;;;;5014955;28;20873;-47